Time;durP1;ratioP1;P1;durP2;ratioP2;P2;SDS_P1;SDS_P2;PMS_P1;PMS_P2;Temp;Humidity;BMP_temperature;BMP_pressure;BME280_temperature;BME280_humidity;BME280_pressure;Samples;Min_cycle;Max_cycle;Signal;HPM_P1;HPM_P2
2022/04/14 00:02:15;;;;;;;41.28;21.08;;;;;;;10.73;100.00;101755.31;4938524;28;20046;-76
2022/04/14 00:04:40;;;;;;;40.42;19.75;;;;;;;10.70;100.00;101725.75;4957210;28;20138;-77
2022/04/14 00:07:06;;;;;;;43.13;20.60;;;;;;;10.69;100.00;101733.75;4934590;28;20129;-76
2022/04/14 00:09:31;;;;;;;43.67;20.23;;;;;;;10.69;100.00;101736.38;4978945;28;20045;-75
2022/04/14 00:11:57;;;;;;;43.80;20.90;;;;;;;10.74;100.00;101736.84;4934226;28;20485;-77
2022/04/14 00:14:23;;;;;;;45.83;22.23;;;;;;;10.72;100.00;101736.13;4974109;28;20070;-77
2022/04/14 00:16:48;;;;;;;42.75;21.83;;;;;;;10.60;100.00;101745.78;4961503;28;20058;-76
2022/04/14 00:19:14;;;;;;;44.65;20.98;;;;;;;10.55;100.00;101742.72;4963128;28;20041;-77
2022/04/14 00:21:39;;;;;;;40.10;19.27;;;;;;;10.56;100.00;101738.31;4965593;28;20035;-76
2022/04/14 00:24:06;;;;;;;40.22;19.63;;;;;;;10.60;100.00;101737.09;4947955;28;20033;-76
2022/04/14 00:26:31;;;;;;;43.95;20.13;;;;;;;10.64;100.00;101735.91;4951893;28;20038;-77
2022/04/14 00:28:57;;;;;;;39.08;17.45;;;;;;;10.58;100.00;101744.25;4952799;28;20035;-77
2022/04/14 00:31:22;;;;;;;38.78;17.58;;;;;;;10.59;100.00;101745.94;4951495;28;20034;-76
2022/04/14 00:33:48;;;;;;;34.80;17.55;;;;;;;10.61;100.00;101746.66;4962075;28;20042;-77
2022/04/14 00:36:13;;;;;;;39.65;16.73;;;;;;;10.52;100.00;101745.59;4949323;28;20047;-78
2022/04/14 00:38:39;;;;;;;36.45;16.48;;;;;;;10.44;100.00;101740.94;4950546;28;20113;-76
2022/04/14 00:41:05;;;;;;;31.00;16.23;;;;;;;10.42;100.00;101731.53;4934985;28;20038;-77
2022/04/14 00:43:32;;;;;;;29.98;15.45;;;;;;;10.39;100.00;101739.63;4965529;28;20027;-78
2022/04/14 00:46:02;;;;;;;32.08;17.55;;;;;;;10.31;100.00;101738.44;4952730;28;20515;-77
2022/04/14 00:48:28;;;;;;;30.75;16.13;;;;;;;10.33;100.00;101744.41;4948148;29;20405;-78
2022/04/14 00:50:55;;;;;;;33.58;17.17;;;;;;;10.37;100.00;101747.63;4965533;28;20106;-76
2022/04/14 00:53:22;;;;;;;36.53;16.23;;;;;;;10.38;100.00;101751.06;4966927;28;20035;-77
2022/04/14 00:55:49;;;;;;;31.55;16.30;;;;;;;10.49;100.00;101751.06;4927894;28;20046;-77
2022/04/14 00:58:15;;;;;;;32.63;17.40;;;;;;;10.48;100.00;101762.53;4945583;28;20669;-79
2022/04/14 01:00:41;;;;;;;36.05;17.05;;;;;;;10.63;100.00;101771.78;4931961;28;20071;-79
2022/04/14 01:03:09;;;;;;;37.25;17.23;;;;;;;10.58;100.00;101775.75;4949093;28;20782;-78
2022/04/14 01:05:34;;;;;;;32.05;16.50;;;;;;;10.50;100.00;101766.69;4928473;29;20043;-77
2022/04/14 01:08:01;;;;;;;35.63;17.35;;;;;;;10.49;100.00;101753.69;4978519;28;20042;-78
2022/04/14 01:10:27;;;;;;;38.85;18.50;;;;;;;10.48;100.00;101741.53;4951285;28;20097;-78
2022/04/14 01:12:53;;;;;;;38.05;19.83;;;;;;;10.46;100.00;101752.16;4950377;28;20035;-77
2022/04/14 01:15:19;;;;;;;47.13;21.00;;;;;;;10.43;100.00;101749.75;4927160;28;20030;-77
2022/04/14 01:17:44;;;;;;;44.10;20.38;;;;;;;10.42;100.00;101758.59;4963436;28;20058;-76
2022/04/14 01:20:11;;;;;;;41.85;20.50;;;;;;;10.51;100.00;101762.28;4950540;28;20157;-77
2022/04/14 01:22:51;;;;;;;41.17;20.60;;;;;;;10.47;100.00;101755.59;4964925;28;20038;-79
2022/04/14 01:25:17;;;;;;;40.72;21.10;;;;;;;10.48;100.00;101747.59;4943049;28;20480;-76
2022/04/14 01:27:42;;;;;;;45.05;20.63;;;;;;;10.44;100.00;101743.56;4967135;28;20039;-77
2022/04/14 01:30:09;;;;;;;46.92;21.65;;;;;;;10.42;100.00;101742.03;4965571;28;20141;-79
2022/04/14 01:32:34;;;;;;;54.13;22.10;;;;;;;10.32;100.00;101745.38;4956877;28;20106;-76
2022/04/14 01:35:00;;;;;;;50.15;21.70;;;;;;;10.26;100.00;101739.72;4929145;29;20430;-77
2022/04/14 01:37:26;;;;;;;44.92;20.63;;;;;;;10.28;100.00;101743.06;4975229;28;20086;-77
2022/04/14 01:39:51;;;;;;;42.90;21.38;;;;;;;10.30;100.00;101738.53;4935190;28;20133;-78
2022/04/14 01:42:17;;;;;;;48.10;23.23;;;;;;;10.39;100.00;101744.88;4936276;28;20097;-76
2022/04/14 01:44:43;;;;;;;46.33;23.65;;;;;;;10.41;100.00;101754.28;4948048;28;20043;-76
2022/04/14 01:47:08;;;;;;;47.35;22.45;;;;;;;10.29;100.00;101755.25;4934118;28;20118;-77
2022/04/14 01:49:34;;;;;;;43.22;22.77;;;;;;;10.24;100.00;101749.50;4967139;28;20062;-78
2022/04/14 01:52:00;;;;;;;41.42;21.58;;;;;;;10.20;100.00;101745.47;4962733;28;20035;-78
2022/04/14 01:54:25;;;;;;;51.42;24.08;;;;;;;10.20;100.00;101735.81;4924330;28;20043;-77
2022/04/14 01:56:51;;;;;;;61.78;27.05;;;;;;;10.25;100.00;101743.31;4966810;28;20057;-77
2022/04/14 01:59:17;;;;;;;53.33;25.00;;;;;;;10.26;100.00;101737.09;4939064;28;20496;-76
2022/04/14 02:01:42;;;;;;;51.78;25.08;;;;;;;10.25;100.00;101730.22;4951994;28;20056;-77
2022/04/14 02:04:08;;;;;;;57.85;26.60;;;;;;;10.22;100.00;101738.31;4951773;28;20045;-77
2022/04/14 02:06:34;;;;;;;62.60;27.85;;;;;;;10.16;100.00;101734.38;4950887;28;20046;-76
2022/04/14 02:09:00;;;;;;;55.05;26.30;;;;;;;10.17;100.00;101735.19;4934730;28;20725;-78
2022/04/14 02:11:26;;;;;;;59.83;28.73;;;;;;;10.20;100.00;101734.97;4953536;28;20031;-76
2022/04/14 02:13:52;;;;;;;61.00;27.65;;;;;;;10.19;100.00;101739.41;4964454;28;20129;-75
2022/04/14 02:16:17;;;;;;;61.03;28.02;;;;;;;10.15;100.00;101732.69;4955820;28;20125;-77
2022/04/14 02:18:43;;;;;;;60.53;28.48;;;;;;;10.12;100.00;101733.78;4974028;28;20071;-75
2022/04/14 02:21:08;;;;;;;60.70;27.05;;;;;;;10.13;100.00;101729.34;4937737;28;20034;-76
2022/04/14 02:23:34;;;;;;;60.00;28.00;;;;;;;10.16;100.00;101728.31;4962517;28;20114;-76
2022/04/14 02:26:00;;;;;;;66.78;28.92;;;;;;;10.18;100.00;101734.25;4955145;28;20026;-77
2022/04/14 02:28:25;;;;;;;60.53;29.63;;;;;;;10.20;100.00;101740.22;4966588;28;20035;-75
2022/04/14 02:30:51;;;;;;;52.42;25.90;;;;;;;10.19;100.00;101736.78;4963237;28;20046;-75
2022/04/14 02:33:16;;;;;;;57.70;29.40;;;;;;;10.13;100.00;101721.50;4942718;28;20050;-74
2022/04/14 02:35:42;;;;;;;62.47;29.75;;;;;;;10.13;100.00;101724.13;4952815;28;20042;-76
2022/04/14 02:38:09;;;;;;;62.47;28.83;;;;;;;10.09;100.00;101720.91;4951914;28;20038;-75
2022/04/14 02:40:34;;;;;;;67.63;30.48;;;;;;;10.07;100.00;101714.94;4950314;28;20023;-75
2022/04/14 02:43:00;;;;;;;63.50;28.88;;;;;;;10.05;100.00;101703.75;4950983;28;20444;-75
2022/04/14 02:45:26;;;;;;;69.70;31.13;;;;;;;10.04;100.00;101711.72;4965187;28;20045;-76
2022/04/14 02:47:54;;;;;;;63.60;30.02;;;;;;;9.99;100.00;101708.66;4966825;28;20049;-76
2022/04/14 02:50:21;;;;;;;66.03;31.02;;;;;;;9.97;100.00;101711.38;4940701;28;20113;-75
2022/04/14 02:52:48;;;;;;;55.45;27.30;;;;;;;9.93;100.00;101717.81;4950911;28;20050;-76
2022/04/14 02:55:14;;;;;;;61.75;29.95;;;;;;;9.97;100.00;101718.41;4963588;28;20432;-75
2022/04/14 02:57:40;;;;;;;63.22;30.15;;;;;;;9.98;100.00;101723.50;4949825;28;20177;-75
2022/04/14 03:00:09;;;;;;;69.65;31.98;;;;;;;9.95;100.00;101718.53;4960084;28;20129;-75
2022/04/14 03:02:36;;;;;;;66.50;30.50;;;;;;;9.88;100.00;101712.09;4964784;28;20045;-74
2022/04/14 03:05:02;;;;;;;67.60;31.48;;;;;;;9.90;100.00;101712.81;4963203;28;20047;-73
2022/04/14 03:07:28;;;;;;;64.75;30.50;;;;;;;9.92;100.00;101713.50;4962219;28;20046;-77
2022/04/14 03:09:54;;;;;;;70.18;31.48;;;;;;;9.91;100.00;101704.81;4930054;28;20480;-75
2022/04/14 03:12:20;;;;;;;69.75;31.33;;;;;;;9.92;100.00;101716.13;4949017;28;20030;-75
2022/04/14 03:14:47;;;;;;;84.50;34.55;;;;;;;9.91;100.00;101709.25;4963857;28;20035;-76
2022/04/14 03:17:13;;;;;;;69.60;33.53;;;;;;;9.91;100.00;101712.69;4948795;28;20077;-74
2022/04/14 03:19:39;;;;;;;75.93;33.58;;;;;;;9.98;100.00;101723.50;4959393;28;20034;-75
2022/04/14 03:22:05;;;;;;;67.32;32.28;;;;;;;9.91;100.00;101714.47;4947501;28;20101;-76
2022/04/14 03:24:31;;;;;;;67.93;32.60;;;;;;;9.87;100.00;101707.78;4941505;28;20027;-76
2022/04/14 03:26:57;;;;;;;59.60;29.95;;;;;;;9.79;100.00;101705.75;4961805;28;20038;-76
2022/04/14 03:29:22;;;;;;;66.13;30.45;;;;;;;9.77;100.00;101715.53;4961456;28;20401;-77
2022/04/14 03:31:48;;;;;;;65.75;31.20;;;;;;;9.90;100.00;101712.81;4965232;28;20118;-77
2022/04/14 03:34:14;;;;;;;60.45;29.60;;;;;;;9.83;100.00;101720.31;4937645;28;20035;-77
2022/04/14 03:36:39;;;;;;;67.60;30.70;;;;;;;9.79;100.00;101718.84;4962300;28;20683;-76
2022/04/14 03:39:05;;;;;;;63.63;30.25;;;;;;;9.84;100.00;101729.84;4956998;28;20047;-76
2022/04/14 03:41:31;;;;;;;61.55;30.48;;;;;;;9.74;100.00;101729.72;4946707;28;20050;-77
2022/04/14 03:43:57;;;;;;;55.83;28.70;;;;;;;9.70;100.00;101722.19;4950407;28;20030;-76
2022/04/14 03:46:23;;;;;;;68.25;31.55;;;;;;;9.66;100.00;101718.97;4973886;28;20497;-77
2022/04/14 03:48:49;;;;;;;64.93;31.52;;;;;;;9.65;100.00;101719.09;4953110;28;20030;-77
2022/04/14 03:51:15;;;;;;;64.53;30.65;;;;;;;9.59;100.00;101715.16;4949442;28;20110;-76
2022/04/14 03:53:42;;;;;;;60.80;29.25;;;;;;;9.58;100.00;101721.34;4946657;28;20138;-76
2022/04/14 03:56:07;;;;;;;58.08;27.08;;;;;;;9.55;100.00;101716.34;4970604;28;20118;-78
2022/04/14 03:58:33;;;;;;;56.35;28.13;;;;;;;9.53;100.00;101710.34;4959505;28;20126;-76
2022/04/14 04:00:59;;;;;;;60.15;29.98;;;;;;;9.54;100.00;101712.03;4965086;28;20074;-76
2022/04/14 04:03:24;;;;;;;58.67;29.88;;;;;;;9.50;100.00;101710.63;4959283;28;20126;-76
2022/04/14 04:05:50;;;;;;;55.00;28.83;;;;;;;9.53;100.00;101705.13;4961044;28;20039;-76
2022/04/14 04:08:15;;;;;;;59.38;28.85;;;;;;;9.51;100.00;101694.78;4967472;28;20031;-76
2022/04/14 04:10:41;;;;;;;60.42;28.48;;;;;;;9.50;100.00;101698.34;4979814;28;20721;-76
2022/04/14 04:13:07;;;;;;;58.42;28.45;;;;;;;9.48;100.00;101707.28;4946199;28;20106;-78
2022/04/14 04:15:32;;;;;;;60.72;28.38;;;;;;;9.44;100.00;101711.91;4950494;28;20078;-76
2022/04/14 04:17:58;;;;;;;62.83;28.55;;;;;;;9.37;100.00;101704.63;4950288;28;20043;-75
2022/04/14 04:20:25;;;;;;;59.08;28.73;;;;;;;9.40;100.00;101713.09;4928381;28;20050;-75
2022/04/14 04:22:50;;;;;;;64.20;28.75;;;;;;;9.43;100.00;101714.63;4964774;28;20042;-75
2022/04/14 04:25:16;;;;;;;63.67;28.33;;;;;;;9.52;100.00;101722.63;4943644;28;20049;-75
2022/04/14 04:27:42;;;;;;;57.25;27.02;;;;;;;9.51;100.00;101723.59;4933294;28;20581;-75
2022/04/14 04:30:08;;;;;;;60.72;28.45;;;;;;;9.46;100.00;101717.03;4945776;28;20043;-75
2022/04/14 04:32:34;;;;;;;61.35;26.58;;;;;;;9.39;100.00;101700.94;4974897;28;20031;-75
2022/04/14 04:35:00;;;;;;;63.05;27.10;;;;;;;9.44;100.00;101711.06;4931085;28;20137;-75
2022/04/14 04:37:26;;;;;;;68.40;30.23;;;;;;;9.41;100.00;101712.13;4964231;28;20038;-76
2022/04/14 04:39:52;;;;;;;67.43;27.77;;;;;;;9.35;100.00;101709.97;4949220;28;20043;-75
2022/04/14 04:42:17;;;;;;;60.00;26.75;;;;;;;9.37;100.00;101702.84;4948580;28;20452;-76
2022/04/14 04:44:43;;;;;;;57.97;26.70;;;;;;;9.43;100.00;101718.06;4947685;28;20049;-77
2022/04/14 04:47:09;;;;;;;54.88;25.92;;;;;;;9.42;100.00;101712.94;4965241;28;20484;-77
2022/04/14 04:49:34;;;;;;;59.25;25.63;;;;;;;9.41;100.00;101712.13;4958889;28;20040;-78
2022/04/14 04:52:00;;;;;;;61.45;26.08;;;;;;;9.41;100.00;101709.50;4949525;28;20027;-75
2022/04/14 04:54:26;;;;;;;54.55;26.60;;;;;;;9.38;100.00;101714.13;4965757;28;20050;-77
2022/04/14 04:56:52;;;;;;;61.00;26.58;;;;;;;9.33;100.00;101707.47;4948709;28;20039;-77
2022/04/14 04:59:18;;;;;;;58.25;25.70;;;;;;;9.42;100.00;101716.44;4962374;28;20049;-76
2022/04/14 05:01:43;;;;;;;65.10;26.50;;;;;;;9.46;100.00;101717.03;4961428;28;20484;-76
2022/04/14 05:04:11;;;;;;;49.67;24.75;;;;;;;9.44;100.00;101711.06;4974226;28;20038;-75
2022/04/14 05:06:37;;;;;;;53.10;25.42;;;;;;;9.68;100.00;101726.69;4963546;28;20507;-75
2022/04/14 05:09:03;;;;;;;58.78;27.33;;;;;;;9.68;100.00;101721.47;4977325;28;20035;-77
2022/04/14 05:11:29;;;;;;;54.58;25.90;;;;;;;9.77;100.00;101727.78;4953857;28;20033;-77
2022/04/14 05:13:55;;;;;;;47.67;25.55;;;;;;;9.72;100.00;101726.38;4953481;28;20069;-75
2022/04/14 05:16:20;;;;;;;53.53;26.83;;;;;;;9.75;100.00;101723.50;4960698;28;20035;-76
2022/04/14 05:18:46;;;;;;;60.78;28.20;;;;;;;9.71;100.00;101726.47;4941065;28;20043;-76
2022/04/14 05:21:12;;;;;;;60.38;28.17;;;;;;;9.87;100.00;101729.59;4963568;28;20049;-74
2022/04/14 05:23:38;;;;;;;61.63;29.30;;;;;;;9.84;100.00;101731.63;4967634;28;20138;-77
2022/04/14 05:26:03;;;;;;;64.78;27.92;;;;;;;9.88;100.00;101715.53;4966913;28;20400;-76
2022/04/14 05:28:29;;;;;;;65.55;29.52;;;;;;;9.99;100.00;101727.00;4966752;28;20117;-77
2022/04/14 05:30:54;;;;;;;57.58;28.33;;;;;;;10.07;100.00;101729.84;4952127;28;20113;-76
2022/04/14 05:33:20;;;;;;;57.47;27.60;;;;;;;10.03;100.00;101720.56;4949697;28;20053;-75
2022/04/14 05:35:46;;;;;;;58.83;29.50;;;;;;;10.08;100.00;101732.34;4953287;28;20614;-76
2022/04/14 05:38:12;;;;;;;63.20;29.10;;;;;;;10.06;100.00;101726.41;4966958;28;20114;-75
2022/04/14 05:40:45;;;;;;;58.58;29.75;;;;;;;10.13;100.00;101730.22;4971560;28;20047;-76
2022/04/14 05:43:19;;;;;;;59.75;29.83;;;;;;;10.17;100.00;101732.56;4951860;28;20138;-78
2022/04/14 05:45:47;;;;;;;58.05;30.38;;;;;;;10.17;100.00;101728.19;4979970;28;20080;-76
2022/04/14 05:48:17;;;;;;;61.33;29.25;;;;;;;10.20;100.00;101732.34;4949781;28;20062;-78
2022/04/14 05:50:44;;;;;;;57.50;29.38;;;;;;;10.34;100.00;101732.16;4951556;28;20346;-77
2022/04/14 05:53:11;;;;;;;61.05;30.15;;;;;;;10.33;100.00;101726.03;4934634;28;20138;-77
2022/04/14 05:55:37;;;;;;;57.40;29.83;;;;;;;10.34;100.00;101729.53;4974459;28;20046;-78
2022/04/14 05:58:03;;;;;;;57.83;29.92;;;;;;;10.44;100.00;101735.69;4952484;28;20034;-77
2022/04/14 06:00:34;;;;;;;58.83;29.60;;;;;;;10.54;100.00;101738.41;4964659;28;20049;-77
2022/04/14 06:03:00;;;;;;;63.42;30.65;;;;;;;10.56;100.00;101746.19;4967630;28;20637;-77
2022/04/14 06:05:27;;;;;;;54.97;30.25;;;;;;;10.63;100.00;101744.75;4940955;28;20082;-78
2022/04/14 06:07:54;;;;;;;58.42;29.05;;;;;;;10.69;100.00;101747.69;4959217;28;20042;-78
2022/04/14 06:10:20;;;;;;;60.42;30.77;;;;;;;10.61;100.00;101744.03;4950462;28;20105;-78
2022/04/14 06:12:46;;;;;;;58.13;29.27;;;;;;;10.69;100.00;101736.38;4963977;28;20862;-77
2022/04/14 06:15:13;;;;;;;64.45;30.38;;;;;;;10.80;100.00;101746.84;4955150;28;20031;-76
2022/04/14 06:17:39;;;;;;;54.28;28.83;;;;;;;10.80;100.00;101748.63;4951604;28;20043;-78
2022/04/14 06:20:05;;;;;;;54.17;29.38;;;;;;;10.84;100.00;101750.88;4967795;28;20407;-77
2022/04/14 06:22:35;;;;;;;53.55;29.48;;;;;;;10.86;100.00;101746.34;4954886;28;20441;-76
2022/04/14 06:25:01;;;;;;;56.15;29.08;;;;;;;10.91;100.00;101741.56;4963061;28;20145;-76
2022/04/14 06:27:28;;;;;;;54.53;29.73;;;;;;;10.98;100.00;101747.16;4948520;28;20391;-78
2022/04/14 06:29:53;;;;;;;52.35;28.25;;;;;;;11.01;100.00;101748.69;4960086;28;20085;-78
2022/04/14 06:32:19;;;;;;;56.63;28.67;;;;;;;11.06;100.00;101749.16;4948964;28;20054;-77
2022/04/14 06:34:45;;;;;;;55.55;30.00;;;;;;;11.11;100.00;101746.97;4961258;28;20039;-77
2022/04/14 06:37:10;;;;;;;50.30;29.08;;;;;;;11.22;100.00;101752.16;4968928;28;20039;-77
2022/04/14 06:39:36;;;;;;;53.40;28.30;;;;;;;11.28;100.00;101754.31;4967248;28;20524;-78
2022/04/14 06:42:02;;;;;;;52.97;27.50;;;;;;;11.29;100.00;101755.13;4935620;28;20038;-77
2022/04/14 06:44:28;;;;;;;53.65;28.95;;;;;;;11.33;100.00;101750.47;4946683;28;20042;-78
2022/04/14 06:46:54;;;;;;;56.70;28.55;;;;;;;11.43;100.00;101760.09;4934373;28;20780;-77
2022/04/14 06:49:19;;;;;;;48.45;27.20;;;;;;;11.50;100.00;101755.97;4950963;28;20053;-77
2022/04/14 06:51:45;;;;;;;44.45;26.40;;;;;;;11.51;100.00;101756.84;4949280;28;20654;-77
2022/04/14 06:54:11;;;;;;;50.35;26.80;;;;;;;11.57;100.00;101758.13;4977196;28;20089;-77
2022/04/14 06:56:36;;;;;;;51.50;26.70;;;;;;;11.52;100.00;101762.91;4964311;28;20193;-77
2022/04/14 06:59:02;;;;;;;43.33;25.45;;;;;;;11.50;100.00;101769.13;4933562;28;20047;-76
2022/04/14 07:01:28;;;;;;;44.25;25.73;;;;;;;11.52;100.00;101768.16;4930378;28;20042;-76
2022/04/14 07:03:53;;;;;;;47.08;26.05;;;;;;;11.53;100.00;101772.44;4962496;28;20207;-78
2022/04/14 07:06:19;;;;;;;44.28;25.27;;;;;;;11.52;100.00;101776.88;4963119;28;20194;-76
2022/04/14 07:08:45;;;;;;;43.38;25.13;;;;;;;11.62;100.00;101762.03;4976328;28;20553;-76
2022/04/14 07:11:10;;;;;;;41.80;23.15;;;;;;;11.65;100.00;101769.63;4962440;28;20556;-76
2022/04/14 07:13:36;;;;;;;44.30;25.20;;;;;;;11.63;100.00;101765.47;4931724;28;20404;-77
2022/04/14 07:16:03;;;;;;;37.78;24.38;;;;;;;11.71;100.00;101770.91;4949405;28;20039;-77
2022/04/14 07:18:28;;;;;;;40.25;24.77;;;;;;;11.72;100.00;101772.59;4978417;28;20100;-75
2022/04/14 07:20:54;;;;;;;44.75;25.83;;;;;;;11.84;100.00;101770.72;4947098;28;20516;-77
2022/04/14 07:23:20;;;;;;;40.88;25.33;;;;;;;11.83;100.00;101771.69;4950185;28;20175;-76
2022/04/14 07:25:46;;;;;;;35.33;25.05;;;;;;;11.94;100.00;101771.66;4960544;28;20412;-76
2022/04/14 07:28:13;;;;;;;40.28;25.98;;;;;;;11.96;100.00;101771.50;4960155;28;20061;-76
2022/04/14 07:30:39;;;;;;;39.60;25.50;;;;;;;12.07;100.00;101774.91;4964727;28;20137;-77
2022/04/14 07:33:06;;;;;;;35.00;25.35;;;;;;;12.05;100.00;101773.34;4963751;28;20518;-76
2022/04/14 07:35:32;;;;;;;40.80;26.92;;;;;;;12.16;100.00;101772.44;4958628;28;20049;-76
2022/04/14 07:37:59;;;;;;;36.85;25.35;;;;;;;12.18;100.00;101771.34;4964626;28;20488;-76
2022/04/14 07:40:25;;;;;;;38.58;25.90;;;;;;;12.10;100.00;101778.22;4948640;28;20399;-75
2022/04/14 07:42:54;;;;;;;41.55;27.25;;;;;;;12.17;100.00;101777.56;4961832;28;20035;-76
2022/04/14 07:45:20;;;;;;;37.35;25.50;;;;;;;12.21;100.00;101778.97;4949152;28;20879;-76
2022/04/14 07:47:46;;;;;;;40.60;26.23;;;;;;;12.28;100.00;101771.38;4980153;28;20038;-76
2022/04/14 07:50:13;;;;;;;38.60;28.08;;;;;;;12.35;100.00;101780.41;4961195;28;20050;-76
2022/04/14 07:52:48;;;;;;;38.50;25.60;;;;;;;12.43;100.00;101783.22;4966405;28;20114;-76
2022/04/14 07:55:28;;;;;;;39.80;27.08;;;;;;;12.37;100.00;101783.72;4966816;28;20149;-76
2022/04/14 07:57:57;;;;;;;39.30;25.55;;;;;;;12.33;100.00;101781.50;4960731;28;20698;-76
2022/04/14 08:00:24;;;;;;;41.88;26.23;;;;;;;12.33;100.00;101790.22;4947125;28;20047;-76
2022/04/14 08:02:53;;;;;;;37.63;25.40;;;;;;;12.29;100.00;101795.91;4952107;28;20162;-77
2022/04/14 08:05:21;;;;;;;41.10;25.98;;;;;;;12.32;100.00;101793.84;4949781;28;20088;-76
2022/04/14 08:07:46;;;;;;;40.05;26.98;;;;;;;12.29;100.00;101799.34;4967606;28;20112;-77
2022/04/14 08:10:12;;;;;;;37.58;26.33;;;;;;;12.31;100.00;101800.06;4952518;28;20431;-77
2022/04/14 08:12:38;;;;;;;41.70;27.00;;;;;;;12.39;100.00;101794.13;4966729;28;20077;-76
2022/04/14 08:15:04;;;;;;;36.63;25.42;;;;;;;12.38;100.00;101790.66;4949988;28;20038;-76
2022/04/14 08:17:32;;;;;;;38.15;25.58;;;;;;;12.33;100.00;101794.66;4961701;28;20070;-76
2022/04/14 08:19:58;;;;;;;42.22;25.38;;;;;;;12.46;100.00;101785.56;4982865;28;20027;-77
2022/04/14 08:22:24;;;;;;;38.15;25.70;;;;;;;12.54;100.00;101795.41;4956729;28;20050;-76
2022/04/14 08:24:50;;;;;;;37.95;25.73;;;;;;;12.60;100.00;101794.06;4958846;28;20424;-76
2022/04/14 08:27:18;;;;;;;35.88;23.58;;;;;;;12.47;100.00;101789.06;4946970;28;20033;-76
2022/04/14 08:29:43;;;;;;;43.40;24.50;;;;;;;12.48;100.00;101793.34;4963923;28;20045;-77
2022/04/14 08:32:09;;;;;;;38.65;24.92;;;;;;;12.54;100.00;101787.53;4960457;28;20027;-77
2022/04/14 08:34:36;;;;;;;35.85;25.08;;;;;;;12.72;100.00;101794.81;4949366;28;20404;-77
2022/04/14 08:37:02;;;;;;;39.85;24.00;;;;;;;12.82;100.00;101793.84;4972010;28;20042;-76
2022/04/14 08:39:29;;;;;;;32.83;23.27;;;;;;;12.90;100.00;101803.69;4946950;28;20043;-77
2022/04/14 08:42:04;;;;;;;31.55;22.67;;;;;;;13.02;100.00;101805.25;4960723;28;20113;-76
2022/04/14 08:44:36;;;;;;;34.40;22.58;;;;;;;13.01;100.00;101806.19;4974880;28;20110;-74
2022/04/14 08:47:02;;;;;;;30.58;22.77;;;;;;;13.05;100.00;101801.50;4959000;28;20042;-76
2022/04/14 08:49:30;;;;;;;28.95;21.45;;;;;;;13.14;100.00;101808.56;4964895;28;20121;-76
2022/04/14 08:51:56;;;;;;;32.88;20.90;;;;;;;13.14;100.00;101815.66;4952233;28;20070;-75
2022/04/14 08:54:23;;;;;;;30.38;21.38;;;;;;;13.16;100.00;101811.06;4966377;28;20600;-75
2022/04/14 08:56:51;;;;;;;32.00;20.35;;;;;;;13.21;100.00;101799.16;4950784;28;20094;-75
2022/04/14 08:59:18;;;;;;;30.55;21.38;;;;;;;13.25;100.00;101811.09;4957324;28;20035;-75
2022/04/14 09:01:44;;;;;;;31.45;20.88;;;;;;;13.37;100.00;101798.66;4965627;28;20854;-75
2022/04/14 09:04:11;;;;;;;30.38;21.10;;;;;;;13.27;100.00;101802.22;4951400;28;20057;-75
2022/04/14 09:06:36;;;;;;;35.33;20.75;;;;;;;13.35;100.00;101794.47;4966542;28;20043;-75
2022/04/14 09:09:02;;;;;;;33.80;20.38;;;;;;;13.40;100.00;101801.00;4956620;28;20397;-74
2022/04/14 09:11:30;;;;;;;33.20;22.52;;;;;;;13.40;100.00;101794.91;4964756;28;20123;-74
2022/04/14 09:13:58;;;;;;;33.38;23.52;;;;;;;13.41;100.00;101797.41;4972999;28;20035;-75
2022/04/14 09:16:25;;;;;;;30.52;22.75;;;;;;;13.54;100.00;101798.91;4935573;28;20062;-75
2022/04/14 09:18:53;;;;;;;33.42;21.83;;;;;;;13.43;100.00;101800.72;4971649;28;20038;-75
2022/04/14 09:21:19;;;;;;;34.15;22.38;;;;;;;13.39;100.00;101807.25;4975471;28;20030;-75
2022/04/14 09:23:54;;;;;;;32.35;22.25;;;;;;;13.53;100.00;101808.63;4976299;28;20046;-76
2022/04/14 09:26:23;;;;;;;34.72;21.15;;;;;;;13.51;100.00;101807.09;4964115;28;20109;-75
2022/04/14 09:29:10;;;;;;;33.97;22.23;;;;;;;13.48;100.00;101810.84;4968290;28;20035;-76
2022/04/14 09:31:51;;;;;;;31.15;21.52;;;;;;;13.71;100.00;101814.03;4962042;28;20508;-75
2022/04/14 09:34:19;;;;;;;32.38;20.33;;;;;;;13.87;100.00;101816.06;4985064;28;20102;-76
2022/04/14 09:37:04;;;;;;;28.45;19.38;;;;;;;14.03;100.00;101818.09;4968356;28;20077;-77
2022/04/14 09:39:30;;;;;;;29.70;20.15;;;;;;;14.00;100.00;101808.69;4970317;28;20397;-76
2022/04/14 09:41:55;;;;;;;28.67;18.27;;;;;;;14.27;100.00;101812.34;4940154;28;20511;-76
2022/04/14 09:44:23;;;;;;;22.67;17.50;;;;;;;14.39;100.00;101816.47;4951555;28;20026;-75
2022/04/14 09:46:48;;;;;;;21.65;15.27;;;;;;;14.41;100.00;101798.69;4964759;28;20077;-75
2022/04/14 09:49:17;;;;;;;21.25;15.82;;;;;;;14.43;100.00;101802.97;4966890;28;20038;-76
2022/04/14 09:51:46;;;;;;;20.95;16.20;;;;;;;14.61;100.00;101801.25;4949895;28;20035;-76
2022/04/14 09:54:17;;;;;;;24.98;16.77;;;;;;;14.93;100.00;101806.06;4966306;28;20046;-75
2022/04/14 09:56:46;;;;;;;26.38;16.75;;;;;;;15.15;100.00;101801.34;4965119;28;20070;-75
2022/04/14 09:59:14;;;;;;;19.40;14.32;;;;;;;15.14;100.00;101800.50;4955526;28;20061;-75
2022/04/14 10:01:40;;;;;;;22.25;15.10;;;;;;;15.15;100.00;101802.16;4964068;28;20113;-75
2022/04/14 10:04:06;;;;;;;21.52;15.13;;;;;;;15.31;100.00;101812.06;4944216;28;20089;-75
2022/04/14 10:06:32;;;;;;;23.95;14.77;;;;;;;15.22;98.67;101802.41;4934442;28;20042;-75
2022/04/14 10:08:57;;;;;;;23.20;14.75;;;;;;;15.19;97.73;101792.94;4948602;28;20045;-75
2022/04/14 10:11:34;;;;;;;20.95;14.07;;;;;;;14.91;100.00;101801.91;4967972;28;20045;-75
2022/04/14 10:14:11;;;;;;;19.73;14.38;;;;;;;14.86;100.00;101801.53;4952034;28;20041;-75
2022/04/14 10:16:38;;;;;;;21.73;15.38;;;;;;;14.81;97.66;101806.44;4962088;28;20099;-76
2022/04/14 10:19:05;;;;;;;20.67;15.75;;;;;;;14.61;97.67;101793.31;4959865;28;20031;-76
2022/04/14 10:21:31;;;;;;;20.73;15.23;;;;;;;14.56;97.07;101796.38;4935522;28;20089;-76
2022/04/14 10:23:57;;;;;;;21.48;14.95;;;;;;;14.42;100.00;101802.16;4964524;28;20496;-76
2022/04/14 10:26:25;;;;;;;19.23;14.30;;;;;;;14.41;100.00;101798.69;4978785;28;20031;-76
2022/04/14 10:28:52;;;;;;;17.98;13.48;;;;;;;14.37;99.16;101805.22;4950146;28;20047;-76
2022/04/14 10:31:19;;;;;;;21.80;14.00;;;;;;;14.25;100.00;101800.28;4948611;28;20097;-76
2022/04/14 10:33:45;;;;;;;18.95;13.55;;;;;;;14.16;99.77;101794.03;4977413;28;20031;-76
2022/04/14 10:36:11;;;;;;;19.83;13.90;;;;;;;14.50;100.00;101796.13;4967423;28;20488;-76
2022/04/14 10:38:38;;;;;;;17.20;12.52;;;;;;;15.04;97.93;101801.56;4948478;28;20059;-75
2022/04/14 10:41:12;;;;;;;14.88;10.82;;;;;;;15.56;94.77;101794.59;4950981;28;20035;-76
2022/04/14 10:43:43;;;;;;;13.85;10.57;;;;;;;15.90;89.61;101800.97;4949481;28;20093;-76
2022/04/14 10:46:14;;;;;;;12.82;10.10;;;;;;;15.96;88.46;101797.69;4947807;28;20081;-78
2022/04/14 10:48:41;;;;;;;15.60;10.65;;;;;;;15.66;86.64;101802.41;4950271;28;20158;-76
2022/04/14 10:51:20;;;;;;;15.38;11.35;;;;;;;15.85;86.33;101806.72;4949944;28;20034;-76
2022/04/14 10:53:57;;;;;;;14.70;10.13;;;;;;;15.91;87.85;101802.63;4962302;28;20489;-76
2022/04/14 10:56:42;;;;;;;15.40;11.18;;;;;;;15.63;86.21;101802.72;4961136;28;20686;-77
2022/04/14 10:59:12;;;;;;;10.90;9.20;;;;;;;15.56;91.63;101807.81;4951524;28;20392;-76
2022/04/14 11:01:50;;;;;;;12.73;9.25;;;;;;;15.90;89.21;101811.56;4963191;28;20058;-75
2022/04/14 11:04:23;;;;;;;14.07;8.93;;;;;;;15.81;88.85;101801.91;4965170;28;20088;-76